sensor_id;sensor_type;location;lat;lon;timestamp;P1;durP1;ratioP1;P2;durP2;ratioP2
2610;SDS011;5612;51.134;17.058;2023-03-25T00:01:17;4.53;;;3.67;;
2610;SDS011;5612;51.134;17.058;2023-03-25T00:03:51;4.10;;;3.70;;
2610;SDS011;5612;51.134;17.058;2023-03-25T00:06:20;5.50;;;4.40;;
2610;SDS011;5612;51.134;17.058;2023-03-25T00:08:49;3.90;;;3.07;;
2610;SDS011;5612;51.134;17.058;2023-03-25T00:11:19;5.07;;;3.40;;
2610;SDS011;5612;51.134;17.058;2023-03-25T00:13:48;5.07;;;3.50;;
2610;SDS011;5612;51.134;17.058;2023-03-25T00:16:17;6.37;;;4.10;;
2610;SDS011;5612;51.134;17.058;2023-03-25T00:18:46;4.00;;;3.30;;
2610;SDS011;5612;51.134;17.058;2023-03-25T00:21:15;5.47;;;3.83;;
2610;SDS011;5612;51.134;17.058;2023-03-25T00:23:44;4.57;;;3.43;;
2610;SDS011;5612;51.134;17.058;2023-03-25T00:26:13;4.63;;;3.70;;
2610;SDS011;5612;51.134;17.058;2023-03-25T00:28:43;6.20;;;3.43;;
2610;SDS011;5612;51.134;17.058;2023-03-25T00:31:12;5.00;;;3.87;;
2610;SDS011;5612;51.134;17.058;2023-03-25T00:33:41;7.87;;;3.47;;
2610;SDS011;5612;51.134;17.058;2023-03-25T00:36:10;4.67;;;4.20;;
2610;SDS011;5612;51.134;17.058;2023-03-25T00:38:41;3.63;;;3.33;;
2610;SDS011;5612;51.134;17.058;2023-03-25T00:41:12;5.17;;;2.97;;
2610;SDS011;5612;51.134;17.058;2023-03-25T00:43:50;4.20;;;3.20;;
2610;SDS011;5612;51.134;17.058;2023-03-25T00:46:21;5.80;;;3.50;;
2610;SDS011;5612;51.134;17.058;2023-03-25T00:48:52;5.57;;;3.67;;
2610;SDS011;5612;51.134;17.058;2023-03-25T00:51:21;4.73;;;3.23;;
2610;SDS011;5612;51.134;17.058;2023-03-25T00:53:51;5.10;;;3.03;;
2610;SDS011;5612;51.134;17.058;2023-03-25T00:56:22;3.47;;;2.73;;
2610;SDS011;5612;51.134;17.058;2023-03-25T00:58:53;4.37;;;3.20;;
2610;SDS011;5612;51.134;17.058;2023-03-25T01:01:23;5.53;;;4.40;;
2610;SDS011;5612;51.134;17.058;2023-03-25T01:03:54;4.50;;;3.30;;
2610;SDS011;5612;51.134;17.058;2023-03-25T01:06:26;3.20;;;2.63;;
2610;SDS011;5612;51.134;17.058;2023-03-25T01:08:58;6.33;;;3.77;;
2610;SDS011;5612;51.134;17.058;2023-03-25T01:11:29;4.60;;;3.40;;
2610;SDS011;5612;51.134;17.058;2023-03-25T01:14:02;3.07;;;2.77;;
2610;SDS011;5612;51.134;17.058;2023-03-25T01:16:32;3.03;;;2.83;;
2610;SDS011;5612;51.134;17.058;2023-03-25T01:19:02;3.83;;;3.47;;
2610;SDS011;5612;51.134;17.058;2023-03-25T01:21:31;4.90;;;3.50;;
2610;SDS011;5612;51.134;17.058;2023-03-25T01:24:02;3.27;;;2.63;;
2610;SDS011;5612;51.134;17.058;2023-03-25T01:26:31;7.67;;;3.37;;
2610;SDS011;5612;51.134;17.058;2023-03-25T01:29:00;5.33;;;3.70;;
2610;SDS011;5612;51.134;17.058;2023-03-25T01:31:30;5.03;;;3.53;;
2610;SDS011;5612;51.134;17.058;2023-03-25T01:33:59;5.00;;;3.00;;
2610;SDS011;5612;51.134;17.058;2023-03-25T01:36:28;6.17;;;3.70;;
2610;SDS011;5612;51.134;17.058;2023-03-25T01:38:57;4.83;;;3.93;;
2610;SDS011;5612;51.134;17.058;2023-03-25T01:41:27;4.37;;;3.23;;
2610;SDS011;5612;51.134;17.058;2023-03-25T01:47:23;4.50;;;4.00;;
2610;SDS011;5612;51.134;17.058;2023-03-25T01:49:53;4.80;;;4.23;;
2610;SDS011;5612;51.134;17.058;2023-03-25T01:52:23;4.00;;;3.70;;
2610;SDS011;5612;51.134;17.058;2023-03-25T01:54:55;6.27;;;4.87;;
2610;SDS011;5612;51.134;17.058;2023-03-25T01:57:25;7.20;;;4.30;;
2610;SDS011;5612;51.134;17.058;2023-03-25T01:59:56;4.10;;;3.43;;
2610;SDS011;5612;51.134;17.058;2023-03-25T02:02:27;4.83;;;4.40;;
2610;SDS011;5612;51.134;17.058;2023-03-25T02:05:01;4.20;;;3.80;;
2610;SDS011;5612;51.134;17.058;2023-03-25T02:07:37;4.90;;;3.90;;
2610;SDS011;5612;51.134;17.058;2023-03-25T02:10:14;5.83;;;4.00;;
2610;SDS011;5612;51.134;17.058;2023-03-25T02:12:43;4.53;;;4.13;;
2610;SDS011;5612;51.134;17.058;2023-03-25T02:15:13;6.10;;;4.33;;
2610;SDS011;5612;51.134;17.058;2023-03-25T02:17:54;5.90;;;4.63;;
2610;SDS011;5612;51.134;17.058;2023-03-25T02:20:48;5.43;;;4.60;;
2610;SDS011;5612;51.134;17.058;2023-03-25T02:29:47;9.77;;;5.60;;
2610;SDS011;5612;51.134;17.058;2023-03-25T02:32:30;5.03;;;4.23;;
2610;SDS011;5612;51.134;17.058;2023-03-25T02:35:16;4.80;;;4.30;;
2610;SDS011;5612;51.134;17.058;2023-03-25T02:38:02;5.60;;;4.20;;
2610;SDS011;5612;51.134;17.058;2023-03-25T02:40:47;6.37;;;4.03;;
2610;SDS011;5612;51.134;17.058;2023-03-25T02:43:22;5.40;;;3.90;;
2610;SDS011;5612;51.134;17.058;2023-03-25T02:45:58;9.00;;;4.33;;
2610;SDS011;5612;51.134;17.058;2023-03-25T02:48:31;4.20;;;3.90;;
2610;SDS011;5612;51.134;17.058;2023-03-25T02:51:05;7.60;;;4.43;;
2610;SDS011;5612;51.134;17.058;2023-03-25T02:53:38;5.10;;;3.43;;
2610;SDS011;5612;51.134;17.058;2023-03-25T02:56:11;5.80;;;4.57;;
2610;SDS011;5612;51.134;17.058;2023-03-25T02:58:47;5.20;;;4.70;;
2610;SDS011;5612;51.134;17.058;2023-03-25T03:01:17;4.67;;;4.23;;
2610;SDS011;5612;51.134;17.058;2023-03-25T03:03:48;7.30;;;4.53;;
2610;SDS011;5612;51.134;17.058;2023-03-25T03:06:17;5.57;;;4.60;;
2610;SDS011;5612;51.134;17.058;2023-03-25T03:08:55;5.47;;;4.97;;
2610;SDS011;5612;51.134;17.058;2023-03-25T03:11:35;6.67;;;4.77;;
2610;SDS011;5612;51.134;17.058;2023-03-25T03:14:17;7.53;;;4.73;;
2610;SDS011;5612;51.134;17.058;2023-03-25T03:17:00;6.90;;;4.23;;
2610;SDS011;5612;51.134;17.058;2023-03-25T03:19:35;9.83;;;6.40;;
2610;SDS011;5612;51.134;17.058;2023-03-25T03:22:22;4.83;;;4.40;;
2610;SDS011;5612;51.134;17.058;2023-03-25T03:25:05;5.90;;;4.80;;
2610;SDS011;5612;51.134;17.058;2023-03-25T03:27:42;6.93;;;4.60;;
2610;SDS011;5612;51.134;17.058;2023-03-25T03:30:15;5.87;;;5.23;;
2610;SDS011;5612;51.134;17.058;2023-03-25T03:32:51;6.17;;;5.53;;
2610;SDS011;5612;51.134;17.058;2023-03-25T03:35:23;8.47;;;5.73;;
2610;SDS011;5612;51.134;17.058;2023-03-25T03:37:56;6.10;;;5.50;;
2610;SDS011;5612;51.134;17.058;2023-03-25T03:40:30;6.43;;;5.33;;
2610;SDS011;5612;51.134;17.058;2023-03-25T03:43:03;5.70;;;5.20;;
2610;SDS011;5612;51.134;17.058;2023-03-25T03:45:35;6.17;;;5.57;;
2610;SDS011;5612;51.134;17.058;2023-03-25T03:48:09;6.67;;;5.50;;
2610;SDS011;5612;51.134;17.058;2023-03-25T03:50:43;7.20;;;5.33;;
2610;SDS011;5612;51.134;17.058;2023-03-25T03:53:18;7.40;;;4.70;;
2610;SDS011;5612;51.134;17.058;2023-03-25T03:55:53;4.87;;;4.20;;
2610;SDS011;5612;51.134;17.058;2023-03-25T03:58:28;6.30;;;4.53;;
2610;SDS011;5612;51.134;17.058;2023-03-25T04:01:00;5.40;;;4.90;;
2610;SDS011;5612;51.134;17.058;2023-03-25T04:03:36;5.93;;;4.70;;
2610;SDS011;5612;51.134;17.058;2023-03-25T04:06:10;4.93;;;4.00;;
2610;SDS011;5612;51.134;17.058;2023-03-25T04:08:46;4.67;;;4.27;;
2610;SDS011;5612;51.134;17.058;2023-03-25T04:11:26;7.93;;;4.97;;
2610;SDS011;5612;51.134;17.058;2023-03-25T04:13:59;7.37;;;4.90;;
2610;SDS011;5612;51.134;17.058;2023-03-25T04:16:31;4.97;;;4.43;;
2610;SDS011;5612;51.134;17.058;2023-03-25T04:19:03;5.87;;;5.37;;
2610;SDS011;5612;51.134;17.058;2023-03-25T04:21:32;6.50;;;5.77;;
2610;SDS011;5612;51.134;17.058;2023-03-25T04:24:01;5.90;;;4.50;;
2610;SDS011;5612;51.134;17.058;2023-03-25T04:26:31;5.07;;;4.53;;
2610;SDS011;5612;51.134;17.058;2023-03-25T04:29:03;6.37;;;5.00;;
2610;SDS011;5612;51.134;17.058;2023-03-25T04:31:33;5.83;;;5.30;;
2610;SDS011;5612;51.134;17.058;2023-03-25T04:34:03;5.63;;;5.13;;
2610;SDS011;5612;51.134;17.058;2023-03-25T04:36:32;6.83;;;4.73;;
2610;SDS011;5612;51.134;17.058;2023-03-25T04:39:03;7.53;;;5.57;;
2610;SDS011;5612;51.134;17.058;2023-03-25T04:41:34;7.13;;;5.40;;
2610;SDS011;5612;51.134;17.058;2023-03-25T04:44:03;5.67;;;5.13;;
2610;SDS011;5612;51.134;17.058;2023-03-25T04:46:35;6.17;;;5.57;;
2610;SDS011;5612;51.134;17.058;2023-03-25T04:49:05;5.83;;;5.30;;
2610;SDS011;5612;51.134;17.058;2023-03-25T04:51:39;7.77;;;6.03;;
2610;SDS011;5612;51.134;17.058;2023-03-25T04:54:10;6.20;;;5.60;;
2610;SDS011;5612;51.134;17.058;2023-03-25T04:56:44;9.13;;;5.80;;
2610;SDS011;5612;51.134;17.058;2023-03-25T04:59:15;7.13;;;5.90;;
2610;SDS011;5612;51.134;17.058;2023-03-25T05:01:44;7.00;;;5.47;;
2610;SDS011;5612;51.134;17.058;2023-03-25T05:04:14;6.30;;;5.40;;
2610;SDS011;5612;51.134;17.058;2023-03-25T05:06:45;6.00;;;5.40;;
2610;SDS011;5612;51.134;17.058;2023-03-25T05:09:16;6.70;;;5.47;;
2610;SDS011;5612;51.134;17.058;2023-03-25T05:11:49;7.80;;;5.30;;
2610;SDS011;5612;51.134;17.058;2023-03-25T05:14:19;7.00;;;5.07;;
2610;SDS011;5612;51.134;17.058;2023-03-25T05:16:49;5.63;;;5.20;;
2610;SDS011;5612;51.134;17.058;2023-03-25T05:19:17;5.80;;;5.33;;
2610;SDS011;5612;51.134;17.058;2023-03-25T05:21:46;5.87;;;4.80;;
2610;SDS011;5612;51.134;17.058;2023-03-25T05:24:15;6.83;;;5.43;;
2610;SDS011;5612;51.134;17.058;2023-03-25T05:26:45;5.50;;;5.10;;
2610;SDS011;5612;51.134;17.058;2023-03-25T05:29:15;5.77;;;5.20;;
2610;SDS011;5612;51.134;17.058;2023-03-25T05:31:44;5.40;;;4.90;;
2610;SDS011;5612;51.134;17.058;2023-03-25T05:34:14;7.77;;;5.10;;
2610;SDS011;5612;51.134;17.058;2023-03-25T05:36:43;5.37;;;4.97;;
2610;SDS011;5612;51.134;17.058;2023-03-25T05:39:11;6.13;;;5.40;;
2610;SDS011;5612;51.134;17.058;2023-03-25T05:41:42;6.33;;;5.03;;
2610;SDS011;5612;51.134;17.058;2023-03-25T05:44:11;7.57;;;4.80;;
2610;SDS011;5612;51.134;17.058;2023-03-25T05:46:46;5.10;;;4.60;;
2610;SDS011;5612;51.134;17.058;2023-03-25T05:49:15;6.13;;;5.00;;
2610;SDS011;5612;51.134;17.058;2023-03-25T05:51:43;5.40;;;4.90;;
2610;SDS011;5612;51.134;17.058;2023-03-25T05:54:15;5.13;;;4.77;;
2610;SDS011;5612;51.134;17.058;2023-03-25T05:56:44;6.50;;;5.40;;
2610;SDS011;5612;51.134;17.058;2023-03-25T05:59:13;5.03;;;4.63;;
2610;SDS011;5612;51.134;17.058;2023-03-25T06:01:42;4.77;;;4.47;;
2610;SDS011;5612;51.134;17.058;2023-03-25T06:04:12;7.30;;;5.57;;
2610;SDS011;5612;51.134;17.058;2023-03-25T06:06:42;6.30;;;5.10;;
2610;SDS011;5612;51.134;17.058;2023-03-25T06:09:11;7.07;;;5.23;;
2610;SDS011;5612;51.134;17.058;2023-03-25T06:11:40;6.37;;;5.80;;
2610;SDS011;5612;51.134;17.058;2023-03-25T06:14:08;5.30;;;4.80;;
2610;SDS011;5612;51.134;17.058;2023-03-25T06:16:37;6.97;;;5.00;;
2610;SDS011;5612;51.134;17.058;2023-03-25T06:19:06;5.13;;;4.63;;
2610;SDS011;5612;51.134;17.058;2023-03-25T06:21:36;5.50;;;5.00;;
2610;SDS011;5612;51.134;17.058;2023-03-25T06:24:05;10.80;;;6.20;;
2610;SDS011;5612;51.134;17.058;2023-03-25T06:26:35;5.90;;;4.70;;
2610;SDS011;5612;51.134;17.058;2023-03-25T06:29:04;5.23;;;4.73;;
2610;SDS011;5612;51.134;17.058;2023-03-25T06:31:34;7.10;;;5.30;;
2610;SDS011;5612;51.134;17.058;2023-03-25T06:34:02;5.70;;;5.20;;
2610;SDS011;5612;51.134;17.058;2023-03-25T06:36:31;7.30;;;5.30;;
2610;SDS011;5612;51.134;17.058;2023-03-25T06:39:01;6.20;;;4.90;;
2610;SDS011;5612;51.134;17.058;2023-03-25T06:41:32;6.03;;;5.60;;
2610;SDS011;5612;51.134;17.058;2023-03-25T06:44:03;5.10;;;4.70;;
2610;SDS011;5612;51.134;17.058;2023-03-25T06:46:32;6.53;;;4.57;;
2610;SDS011;5612;51.134;17.058;2023-03-25T06:49:01;5.97;;;5.37;;
2610;SDS011;5612;51.134;17.058;2023-03-25T06:51:30;5.33;;;4.93;;
2610;SDS011;5612;51.134;17.058;2023-03-25T06:53:58;5.37;;;4.80;;
2610;SDS011;5612;51.134;17.058;2023-03-25T06:56:29;5.63;;;5.00;;
2610;SDS011;5612;51.134;17.058;2023-03-25T06:58:57;7.73;;;4.97;;
2610;SDS011;5612;51.134;17.058;2023-03-25T07:01:26;6.20;;;5.60;;
2610;SDS011;5612;51.134;17.058;2023-03-25T07:03:55;6.27;;;5.30;;
2610;SDS011;5612;51.134;17.058;2023-03-25T07:06:24;6.07;;;5.63;;
2610;SDS011;5612;51.134;17.058;2023-03-25T07:08:53;5.80;;;5.27;;
2610;SDS011;5612;51.134;17.058;2023-03-25T07:11:23;5.80;;;5.30;;
2610;SDS011;5612;51.134;17.058;2023-03-25T07:13:55;6.70;;;5.90;;
2610;SDS011;5612;51.134;17.058;2023-03-25T07:16:24;6.00;;;5.50;;
2610;SDS011;5612;51.134;17.058;2023-03-25T07:18:53;6.60;;;5.27;;
2610;SDS011;5612;51.134;17.058;2023-03-25T07:21:23;6.13;;;5.53;;
2610;SDS011;5612;51.134;17.058;2023-03-25T07:23:52;5.90;;;5.30;;
2610;SDS011;5612;51.134;17.058;2023-03-25T07:26:21;11.30;;;5.37;;
2610;SDS011;5612;51.134;17.058;2023-03-25T07:28:50;6.43;;;5.73;;
2610;SDS011;5612;51.134;17.058;2023-03-25T07:31:20;6.10;;;5.60;;
2610;SDS011;5612;51.134;17.058;2023-03-25T07:33:49;5.53;;;5.10;;
2610;SDS011;5612;51.134;17.058;2023-03-25T07:36:18;6.50;;;6.00;;
2610;SDS011;5612;51.134;17.058;2023-03-25T07:38:49;7.60;;;6.93;;
2610;SDS011;5612;51.134;17.058;2023-03-25T07:41:21;7.27;;;6.60;;
2610;SDS011;5612;51.134;17.058;2023-03-25T07:43:50;10.60;;;5.57;;
2610;SDS011;5612;51.134;17.058;2023-03-25T07:46:18;5.70;;;5.20;;
2610;SDS011;5612;51.134;17.058;2023-03-25T07:48:49;6.27;;;5.80;;
2610;SDS011;5612;51.134;17.058;2023-03-25T07:51:18;6.80;;;5.77;;
2610;SDS011;5612;51.134;17.058;2023-03-25T07:53:46;6.40;;;5.60;;
2610;SDS011;5612;51.134;17.058;2023-03-25T07:56:15;5.77;;;5.33;;
2610;SDS011;5612;51.134;17.058;2023-03-25T07:58:44;4.07;;;3.77;;
2610;SDS011;5612;51.134;17.058;2023-03-25T08:01:15;6.53;;;4.50;;
2610;SDS011;5612;51.134;17.058;2023-03-25T08:03:45;6.30;;;4.40;;
2610;SDS011;5612;51.134;17.058;2023-03-25T08:06:14;4.63;;;4.27;;
2610;SDS011;5612;51.134;17.058;2023-03-25T08:08:43;4.33;;;3.60;;
2610;SDS011;5612;51.134;17.058;2023-03-25T08:11:12;4.23;;;3.83;;
2610;SDS011;5612;51.134;17.058;2023-03-25T08:13:41;5.33;;;3.70;;
2610;SDS011;5612;51.134;17.058;2023-03-25T08:16:10;4.20;;;3.40;;
2610;SDS011;5612;51.134;17.058;2023-03-25T08:18:40;4.33;;;3.33;;
2610;SDS011;5612;51.134;17.058;2023-03-25T08:21:20;7.03;;;3.07;;
2610;SDS011;5612;51.134;17.058;2023-03-25T08:23:51;5.03;;;3.10;;
2610;SDS011;5612;51.134;17.058;2023-03-25T08:26:24;3.37;;;3.17;;
2610;SDS011;5612;51.134;17.058;2023-03-25T08:28:53;2.63;;;2.50;;
2610;SDS011;5612;51.134;17.058;2023-03-25T08:31:24;2.70;;;2.10;;
2610;SDS011;5612;51.134;17.058;2023-03-25T08:34:00;3.87;;;2.67;;
2610;SDS011;5612;51.134;17.058;2023-03-25T08:36:31;2.80;;;2.60;;
2610;SDS011;5612;51.134;17.058;2023-03-25T08:39:05;4.90;;;3.60;;
2610;SDS011;5612;51.134;17.058;2023-03-25T08:41:37;3.07;;;2.70;;
2610;SDS011;5612;51.134;17.058;2023-03-25T08:44:06;2.50;;;2.33;;
2610;SDS011;5612;51.134;17.058;2023-03-25T08:46:36;2.97;;;2.77;;
2610;SDS011;5612;51.134;17.058;2023-03-25T08:49:05;3.60;;;2.77;;
2610;SDS011;5612;51.134;17.058;2023-03-25T08:51:35;3.20;;;3.00;;
2610;SDS011;5612;51.134;17.058;2023-03-25T08:54:04;3.77;;;3.47;;
2610;SDS011;5612;51.134;17.058;2023-03-25T08:56:33;3.07;;;2.40;;
2610;SDS011;5612;51.134;17.058;2023-03-25T08:59:02;2.57;;;1.50;;
2610;SDS011;5612;51.134;17.058;2023-03-25T09:01:31;3.37;;;1.30;;
2610;SDS011;5612;51.134;17.058;2023-03-25T09:04:00;1.03;;;1.03;;
2610;SDS011;5612;51.134;17.058;2023-03-25T09:06:29;0.93;;;0.90;;
2610;SDS011;5612;51.134;17.058;2023-03-25T09:09:15;8.13;;;1.60;;
2610;SDS011;5612;51.134;17.058;2023-03-25T09:11:44;1.77;;;1.10;;
2610;SDS011;5612;51.134;17.058;2023-03-25T09:14:13;1.80;;;0.97;;
2610;SDS011;5612;51.134;17.058;2023-03-25T09:16:42;1.03;;;0.90;;
2610;SDS011;5612;51.134;17.058;2023-03-25T09:19:11;1.10;;;1.00;;
2610;SDS011;5612;51.134;17.058;2023-03-25T09:21:40;1.53;;;1.30;;
2610;SDS011;5612;51.134;17.058;2023-03-25T09:24:09;1.10;;;1.03;;
2610;SDS011;5612;51.134;17.058;2023-03-25T09:26:39;1.37;;;1.27;;
2610;SDS011;5612;51.134;17.058;2023-03-25T09:29:08;1.20;;;1.10;;
2610;SDS011;5612;51.134;17.058;2023-03-25T09:31:37;1.27;;;1.10;;
2610;SDS011;5612;51.134;17.058;2023-03-25T09:34:06;1.80;;;1.37;;
2610;SDS011;5612;51.134;17.058;2023-03-25T09:36:35;2.70;;;1.33;;
2610;SDS011;5612;51.134;17.058;2023-03-25T09:39:04;1.50;;;1.40;;
2610;SDS011;5612;51.134;17.058;2023-03-25T09:41:42;0.83;;;0.83;;
2610;SDS011;5612;51.134;17.058;2023-03-25T09:44:23;2.77;;;0.83;;
2610;SDS011;5612;51.134;17.058;2023-03-25T09:46:56;0.77;;;0.70;;
2610;SDS011;5612;51.134;17.058;2023-03-25T09:49:31;1.63;;;1.27;;
2610;SDS011;5612;51.134;17.058;2023-03-25T09:52:05;1.43;;;1.00;;
2610;SDS011;5612;51.134;17.058;2023-03-25T09:54:40;0.93;;;0.90;;
2610;SDS011;5612;51.134;17.058;2023-03-25T09:57:16;2.70;;;1.20;;
2610;SDS011;5612;51.134;17.058;2023-03-25T09:59:50;0.70;;;0.70;;
2610;SDS011;5612;51.134;17.058;2023-03-25T10:02:24;2.40;;;1.37;;
2610;SDS011;5612;51.134;17.058;2023-03-25T10:05:11;0.97;;;0.90;;
2610;SDS011;5612;51.134;17.058;2023-03-25T10:07:54;2.30;;;1.00;;
2610;SDS011;5612;51.134;17.058;2023-03-25T10:10:34;1.30;;;0.70;;
2610;SDS011;5612;51.134;17.058;2023-03-25T10:13:13;1.43;;;1.33;;
2610;SDS011;5612;51.134;17.058;2023-03-25T10:15:48;1.60;;;0.90;;
2610;SDS011;5612;51.134;17.058;2023-03-25T10:18:28;1.97;;;1.27;;
2610;SDS011;5612;51.134;17.058;2023-03-25T10:21:22;1.53;;;1.00;;
2610;SDS011;5612;51.134;17.058;2023-03-25T10:23:57;2.10;;;1.00;;
2610;SDS011;5612;51.134;17.058;2023-03-25T10:26:35;1.13;;;1.03;;
2610;SDS011;5612;51.134;17.058;2023-03-25T10:29:11;2.60;;;1.13;;
2610;SDS011;5612;51.134;17.058;2023-03-25T10:31:44;1.97;;;1.30;;
2610;SDS011;5612;51.134;17.058;2023-03-25T10:34:19;1.20;;;1.20;;
2610;SDS011;5612;51.134;17.058;2023-03-25T10:36:52;0.73;;;0.73;;
2610;SDS011;5612;51.134;17.058;2023-03-25T10:39:24;0.80;;;0.80;;
2610;SDS011;5612;51.134;17.058;2023-03-25T10:42:03;1.73;;;1.40;;
2610;SDS011;5612;51.134;17.058;2023-03-25T10:44:45;1.10;;;1.10;;
2610;SDS011;5612;51.134;17.058;2023-03-25T10:47:16;1.10;;;1.10;;
2610;SDS011;5612;51.134;17.058;2023-03-25T10:49:48;1.87;;;0.90;;
2610;SDS011;5612;51.134;17.058;2023-03-25T10:52:18;1.20;;;1.10;;
2610;SDS011;5612;51.134;17.058;2023-03-25T10:54:48;1.30;;;1.00;;
2610;SDS011;5612;51.134;17.058;2023-03-25T10:57:21;1.70;;;0.93;;
2610;SDS011;5612;51.134;17.058;2023-03-25T11:00:02;1.30;;;1.20;;
2610;SDS011;5612;51.134;17.058;2023-03-25T11:02:41;2.20;;;1.10;;
2610;SDS011;5612;51.134;17.058;2023-03-25T11:05:10;0.80;;;0.80;;
2610;SDS011;5612;51.134;17.058;2023-03-25T11:07:45;1.53;;;0.87;;
2610;SDS011;5612;51.134;17.058;2023-03-25T11:10:18;2.97;;;1.10;;
2610;SDS011;5612;51.134;17.058;2023-03-25T11:12:49;1.37;;;1.07;;
2610;SDS011;5612;51.134;17.058;2023-03-25T11:15:21;1.30;;;0.93;;
2610;SDS011;5612;51.134;17.058;2023-03-25T11:17:56;1.33;;;0.80;;
2610;SDS011;5612;51.134;17.058;2023-03-25T11:20:28;2.20;;;1.43;;
2610;SDS011;5612;51.134;17.058;2023-03-25T11:23:05;2.00;;;1.17;;
2610;SDS011;5612;51.134;17.058;2023-03-25T11:25:39;0.50;;;0.50;;
2610;SDS011;5612;51.134;17.058;2023-03-25T11:28:10;1.03;;;1.03;;
2610;SDS011;5612;51.134;17.058;2023-03-25T11:33:39;1.33;;;1.17;;
2610;SDS011;5612;51.134;17.058;2023-03-25T11:36:11;1.40;;;1.30;;
2610;SDS011;5612;51.134;17.058;2023-03-25T11:38:50;2.10;;;1.20;;
2610;SDS011;5612;51.134;17.058;2023-03-25T11:41:26;1.20;;;1.10;;
2610;SDS011;5612;51.134;17.058;2023-03-25T11:43:57;1.63;;;1.53;;
2610;SDS011;5612;51.134;17.058;2023-03-25T11:46:28;1.20;;;1.10;;
2610;SDS011;5612;51.134;17.058;2023-03-25T11:48:57;1.93;;;1.73;;
2610;SDS011;5612;51.134;17.058;2023-03-25T11:51:37;1.23;;;1.20;;
2610;SDS011;5612;51.134;17.058;2023-03-25T11:54:07;1.97;;;1.30;;
2610;SDS011;5612;51.134;17.058;2023-03-25T11:56:40;2.20;;;1.43;;
2610;SDS011;5612;51.134;17.058;2023-03-25T11:59:17;1.73;;;1.47;;
2610;SDS011;5612;51.134;17.058;2023-03-25T12:01:51;1.70;;;1.60;;
2610;SDS011;5612;51.134;17.058;2023-03-25T12:04:28;3.53;;;1.30;;
2610;SDS011;5612;51.134;17.058;2023-03-25T12:06:59;1.90;;;1.63;;
2610;SDS011;5612;51.134;17.058;2023-03-25T12:09:29;5.13;;;1.20;;
2610;SDS011;5612;51.134;17.058;2023-03-25T12:12:03;1.80;;;1.70;;
2610;SDS011;5612;51.134;17.058;2023-03-25T12:14:51;2.00;;;1.00;;
2610;SDS011;5612;51.134;17.058;2023-03-25T12:17:32;0.90;;;0.90;;
2610;SDS011;5612;51.134;17.058;2023-03-25T12:20:12;1.37;;;1.27;;
2610;SDS011;5612;51.134;17.058;2023-03-25T12:22:53;2.90;;;1.60;;
2610;SDS011;5612;51.134;17.058;2023-03-25T12:25:37;2.03;;;1.17;;
2610;SDS011;5612;51.134;17.058;2023-03-25T12:31:30;1.33;;;1.23;;
2610;SDS011;5612;51.134;17.058;2023-03-25T12:34:15;1.97;;;1.13;;
2610;SDS011;5612;51.134;17.058;2023-03-25T12:36:53;2.03;;;1.10;;
2610;SDS011;5612;51.134;17.058;2023-03-25T12:39:38;2.27;;;1.63;;
2610;SDS011;5612;51.134;17.058;2023-03-25T12:42:21;1.90;;;1.23;;
2610;SDS011;5612;51.134;17.058;2023-03-25T12:45:02;3.07;;;1.30;;
2610;SDS011;5612;51.134;17.058;2023-03-25T12:47:44;1.03;;;1.00;;
2610;SDS011;5612;51.134;17.058;2023-03-25T12:50:31;2.20;;;1.50;;
2610;SDS011;5612;51.134;17.058;2023-03-25T12:53:16;1.80;;;1.57;;
2610;SDS011;5612;51.134;17.058;2023-03-25T12:56:00;1.60;;;1.50;;
2610;SDS011;5612;51.134;17.058;2023-03-25T12:58:46;1.37;;;1.27;;
2610;SDS011;5612;51.134;17.058;2023-03-25T13:01:29;1.70;;;1.60;;
2610;SDS011;5612;51.134;17.058;2023-03-25T13:04:12;1.80;;;1.70;;
2610;SDS011;5612;51.134;17.058;2023-03-25T13:06:54;2.17;;;1.97;;
2610;SDS011;5612;51.134;17.058;2023-03-25T13:09:28;1.93;;;1.80;;
2610;SDS011;5612;51.134;17.058;2023-03-25T13:12:02;2.67;;;1.53;;
2610;SDS011;5612;51.134;17.058;2023-03-25T13:14:38;1.80;;;1.70;;
2610;SDS011;5612;51.134;17.058;2023-03-25T13:17:13;1.63;;;1.53;;
2610;SDS011;5612;51.134;17.058;2023-03-25T13:19:55;2.00;;;1.90;;
2610;SDS011;5612;51.134;17.058;2023-03-25T13:22:30;0.80;;;0.80;;
2610;SDS011;5612;51.134;17.058;2023-03-25T13:25:03;0.83;;;0.83;;
2610;SDS011;5612;51.134;17.058;2023-03-25T13:27:39;0.70;;;0.70;;
2610;SDS011;5612;51.134;17.058;2023-03-25T13:30:12;1.10;;;0.80;;
2610;SDS011;5612;51.134;17.058;2023-03-25T13:32:47;3.90;;;1.40;;
2610;SDS011;5612;51.134;17.058;2023-03-25T13:35:28;0.93;;;0.80;;
2610;SDS011;5612;51.134;17.058;2023-03-25T13:38:05;0.40;;;0.40;;
2610;SDS011;5612;51.134;17.058;2023-03-25T13:40:42;0.43;;;0.43;;
2610;SDS011;5612;51.134;17.058;2023-03-25T13:43:23;0.53;;;0.53;;
2610;SDS011;5612;51.134;17.058;2023-03-25T13:45:58;0.90;;;0.70;;
2610;SDS011;5612;51.134;17.058;2023-03-25T13:48:34;0.97;;;0.80;;
2610;SDS011;5612;51.134;17.058;2023-03-25T13:51:09;1.17;;;0.77;;
2610;SDS011;5612;51.134;17.058;2023-03-25T13:53:40;0.90;;;0.90;;
2610;SDS011;5612;51.134;17.058;2023-03-25T13:59:24;1.00;;;0.93;;
2610;SDS011;5612;51.134;17.058;2023-03-25T14:02:15;1.40;;;1.30;;
2610;SDS011;5612;51.134;17.058;2023-03-25T14:05:03;1.40;;;1.17;;
2610;SDS011;5612;51.134;17.058;2023-03-25T14:07:57;2.40;;;1.90;;
2610;SDS011;5612;51.134;17.058;2023-03-25T14:10:47;1.83;;;1.50;;
2610;SDS011;5612;51.134;17.058;2023-03-25T14:13:21;1.70;;;1.60;;
2610;SDS011;5612;51.134;17.058;2023-03-25T14:15:55;1.63;;;1.47;;
2610;SDS011;5612;51.134;17.058;2023-03-25T14:18:29;2.10;;;1.70;;
2610;SDS011;5612;51.134;17.058;2023-03-25T14:21:21;1.70;;;1.60;;
2610;SDS011;5612;51.134;17.058;2023-03-25T14:23:59;1.43;;;1.33;;
2610;SDS011;5612;51.134;17.058;2023-03-25T14:26:32;1.60;;;1.40;;
2610;SDS011;5612;51.134;17.058;2023-03-25T14:29:05;1.63;;;1.13;;
2610;SDS011;5612;51.134;17.058;2023-03-25T14:31:57;3.40;;;1.20;;
2610;SDS011;5612;51.134;17.058;2023-03-25T14:34:28;0.77;;;0.77;;
2610;SDS011;5612;51.134;17.058;2023-03-25T14:37:16;1.60;;;1.50;;
2610;SDS011;5612;51.134;17.058;2023-03-25T14:39:55;2.73;;;1.17;;
2610;SDS011;5612;51.134;17.058;2023-03-25T14:42:40;1.13;;;1.13;;
2610;SDS011;5612;51.134;17.058;2023-03-25T14:48:22;1.03;;;1.03;;
2610;SDS011;5612;51.134;17.058;2023-03-25T14:51:06;1.50;;;1.40;;
2610;SDS011;5612;51.134;17.058;2023-03-25T14:53:49;1.37;;;1.27;;
2610;SDS011;5612;51.134;17.058;2023-03-25T14:56:22;1.93;;;1.83;;
2610;SDS011;5612;51.134;17.058;2023-03-25T14:58:55;4.27;;;2.70;;
2610;SDS011;5612;51.134;17.058;2023-03-25T15:01:29;2.10;;;2.00;;
2610;SDS011;5612;51.134;17.058;2023-03-25T15:04:13;1.60;;;1.50;;
2610;SDS011;5612;51.134;17.058;2023-03-25T15:06:49;1.63;;;1.13;;
2610;SDS011;5612;51.134;17.058;2023-03-25T15:09:19;1.03;;;0.97;;
2610;SDS011;5612;51.134;17.058;2023-03-25T15:11:53;0.83;;;0.83;;
2610;SDS011;5612;51.134;17.058;2023-03-25T15:14:34;0.80;;;0.70;;
2610;SDS011;5612;51.134;17.058;2023-03-25T15:17:07;0.67;;;0.57;;
2610;SDS011;5612;51.134;17.058;2023-03-25T15:25:59;2.40;;;0.90;;
2610;SDS011;5612;51.134;17.058;2023-03-25T15:28:34;1.13;;;0.80;;
2610;SDS011;5612;51.134;17.058;2023-03-25T15:31:21;0.83;;;0.80;;
2610;SDS011;5612;51.134;17.058;2023-03-25T15:34:02;1.03;;;0.93;;
2610;SDS011;5612;51.134;17.058;2023-03-25T15:36:46;0.93;;;0.83;;
2610;SDS011;5612;51.134;17.058;2023-03-25T15:39:39;1.73;;;1.30;;
2610;SDS011;5612;51.134;17.058;2023-03-25T15:42:31;1.60;;;1.50;;
2610;SDS011;5612;51.134;17.058;2023-03-25T15:48:22;1.50;;;1.40;;
2610;SDS011;5612;51.134;17.058;2023-03-25T15:51:09;1.43;;;1.33;;
2610;SDS011;5612;51.134;17.058;2023-03-25T15:54:03;2.80;;;1.80;;
2610;SDS011;5612;51.134;17.058;2023-03-25T15:56:53;2.00;;;1.57;;
2610;SDS011;5612;51.134;17.058;2023-03-25T15:59:31;1.90;;;1.80;;
2610;SDS011;5612;51.134;17.058;2023-03-25T16:02:09;1.60;;;1.50;;
2610;SDS011;5612;51.134;17.058;2023-03-25T16:04:46;3.30;;;1.93;;
2610;SDS011;5612;51.134;17.058;2023-03-25T16:07:17;1.70;;;1.60;;
2610;SDS011;5612;51.134;17.058;2023-03-25T16:09:50;1.43;;;1.30;;
2610;SDS011;5612;51.134;17.058;2023-03-25T16:12:21;2.20;;;1.17;;